Berwyn, Illinois
Current Conditions -  °F | °C
As of 10:53 AM on Wednesday 22 Oct 2014 (Local Time) from KMDW Reporting Station
Few Clouds Few Clouds  
Wind Chill: 51°   Ceiling: Unl
Heat Index: 51°   Visibility: 10mi
Dew Point: 38°   Wind: 6mph
Humidity: 61%   Direction: 100°E
Pressure: 30.37"   Gusts: NA
Location:  41.84°N, 87.79°W
Report Text: KMDW 221553Z 10005KT 10SM FEW030 11/03 A3037 RMK AO2 SLP288 T01060033
Loading
Personal Weather Stations






























Interactive Weather Map
Tropical Storm Tracking
New forecast layout! Learn more

10-Day Weather Forecast

Advertisements
Track Severe Weather on mobile